createdAt,value
2022-07-28T19:31:32.442Z,28.48
2022-07-28T19:34:01.307Z,28.54
2022-07-28T19:36:32.197Z,28.60
2022-07-28T19:39:01.071Z,28.66
2022-07-28T19:41:31.661Z,28.71
2022-07-28T19:44:00.112Z,28.81
2022-07-28T19:46:29.179Z,28.84
2022-07-28T19:48:57.874Z,28.87
2022-07-28T19:51:27.461Z,28.81
2022-07-28T19:53:59.912Z,28.86
2022-07-28T19:56:31.485Z,28.84
2022-07-28T19:59:02.012Z,28.86
2022-07-28T20:01:31.709Z,28.85
2022-07-28T20:04:05.008Z,28.84
2022-07-28T20:06:35.503Z,28.83
2022-07-28T20:09:08.516Z,28.85
2022-07-28T20:11:40.929Z,28.83
2022-07-28T20:14:09.515Z,28.81
2022-07-28T20:16:42.572Z,28.82
2022-07-28T20:19:29.686Z,28.81
2022-07-28T20:22:00.797Z,28.84
2022-07-28T20:24:42.720Z,28.81
2022-07-28T20:27:40.154Z,28.78
2022-07-28T20:30:30.442Z,28.45
2022-07-28T20:33:55.057Z,28.48
2022-07-28T20:36:38.240Z,28.50
2022-07-28T20:39:34.768Z,28.19
2022-07-28T20:42:22.345Z,28.16
2022-07-28T20:45:00.018Z,28.05
2022-07-28T20:47:41.141Z,27.50
2022-07-28T20:50:18.280Z,27.47
2022-07-28T20:53:19.592Z,27.43
2022-07-28T20:55:48.575Z,27.48
2022-07-28T20:58:27.356Z,27.50
2022-07-28T21:01:00.130Z,27.32
2022-07-28T21:03:33.670Z,27.27
2022-07-28T21:06:07.705Z,27.03
2022-07-28T21:08:42.644Z,26.71
2022-07-28T21:11:16.950Z,26.52
2022-07-28T21:13:45.846Z,26.56
2022-07-28T21:16:22.350Z,26.66
2022-07-28T21:18:52.334Z,26.58
2022-07-28T21:21:21.058Z,26.48
2022-07-28T21:23:51.912Z,26.36
2022-07-28T21:26:27.580Z,26.53
2022-07-28T21:32:04.857Z,26.14
2022-07-28T21:34:39.065Z,26.17
2022-07-28T21:37:13.327Z,26.15
2022-07-28T21:39:45.145Z,26.07
2022-07-28T21:42:21.170Z,26.16
2022-07-28T21:45:04.504Z,26.25
2022-07-28T21:48:01.420Z,26.36
2022-07-28T21:50:39.579Z,26.37
2022-07-28T21:53:15.314Z,26.31
2022-07-28T21:55:58.761Z,26.30
2022-07-28T21:58:42.126Z,26.18
2022-07-28T22:01:24.219Z,26.03
2022-07-28T22:03:53.692Z,26.08
2022-07-28T22:06:28.474Z,26.03
2022-07-28T22:08:58.336Z,26.03
2022-07-28T22:11:26.945Z,26.07
2022-07-28T22:14:17.330Z,26.02
2022-07-28T22:16:50.873Z,25.93
2022-07-28T22:19:19.379Z,25.91
2022-07-28T22:21:48.875Z,25.90
2022-07-28T22:24:19.685Z,25.87
2022-07-28T22:26:47.916Z,25.88
2022-07-28T22:29:17.355Z,25.90
2022-07-28T22:31:52.730Z,25.82
2022-07-28T22:34:28.678Z,25.83
2022-07-28T22:36:58.621Z,25.84
2022-07-28T22:39:27.556Z,25.83
2022-07-28T22:42:07.151Z,25.76
2022-07-28T22:44:37.232Z,25.76
2022-07-28T22:47:08.883Z,25.71
2022-07-28T22:49:41.981Z,25.65
2022-07-28T22:52:12.518Z,25.63
2022-07-28T22:57:29.204Z,25.40
2022-07-28T23:00:22.426Z,25.28
2022-07-28T23:02:52.416Z,25.24
2022-07-28T23:05:21.688Z,25.31
2022-07-28T23:07:57.455Z,25.31
2022-07-28T23:10:30.094Z,25.33
2022-07-28T23:13:05.358Z,25.34
2022-07-28T23:15:39.645Z,25.38
2022-07-28T23:18:10.862Z,25.40
2022-07-28T23:20:44.283Z,25.45
2022-07-28T23:23:17.288Z,25.48
2022-07-28T23:25:52.158Z,25.49
2022-07-28T23:28:29.279Z,25.45
2022-07-28T23:31:03.930Z,25.44
2022-07-28T23:33:56.334Z,25.47
2022-07-28T23:36:27.525Z,25.50
2022-07-28T23:38:59.831Z,25.54
2022-07-28T23:41:28.800Z,25.52
2022-07-28T23:43:57.108Z,25.46
2022-07-28T23:46:25.666Z,25.43
2022-07-28T23:48:54.937Z,25.42
2022-07-28T23:51:47.250Z,25.41
2022-07-28T23:54:14.586Z,25.39
2022-07-28T23:56:44.274Z,25.39
2022-07-28T23:59:14.295Z,25.39
